createdAt,value
2022-11-28T00:02:11.062Z,14.76
2022-11-28T00:04:39.880Z,14.74
2022-11-28T00:07:12.263Z,14.72
2022-11-28T00:09:41.005Z,14.70
2022-11-28T00:12:09.434Z,14.69
2022-11-28T00:14:38.095Z,14.70
2022-11-28T00:17:06.421Z,14.69
2022-11-28T00:19:34.846Z,14.68
2022-11-28T00:22:03.406Z,14.67
2022-11-28T00:24:33.283Z,14.67
2022-11-28T00:27:01.971Z,14.66
2022-11-28T00:29:30.657Z,14.65
2022-11-28T00:31:59.147Z,14.63
2022-11-28T00:34:27.543Z,14.62
2022-11-28T00:36:56.025Z,14.60
2022-11-28T00:39:24.655Z,14.59
2022-11-28T00:41:54.490Z,14.60
2022-11-28T00:44:23.523Z,14.58
2022-11-28T00:46:52.327Z,14.57
2022-11-28T00:49:20.769Z,14.56
2022-11-28T00:51:49.240Z,14.56
2022-11-28T00:54:17.649Z,14.54
2022-11-28T00:56:46.046Z,14.55
2022-11-28T00:59:16.006Z,14.54
2022-11-28T01:01:45.391Z,14.53
2022-11-28T01:04:17.289Z,14.54
2022-11-28T01:06:48.353Z,14.55
2022-11-28T01:09:19.886Z,14.54
2022-11-28T01:11:50.138Z,14.53
2022-11-28T01:14:25.067Z,14.55
2022-11-28T01:16:53.873Z,14.53
2022-11-28T01:19:22.329Z,14.52
2022-11-28T01:21:51.137Z,14.51
2022-11-28T01:24:19.578Z,14.51
2022-11-28T01:26:48.470Z,14.51
2022-11-28T01:29:16.981Z,14.50
2022-11-28T01:31:46.777Z,14.49
2022-11-28T01:34:15.392Z,14.49
2022-11-28T01:36:43.836Z,14.47
2022-11-28T01:39:12.334Z,14.47
2022-11-28T01:41:40.794Z,14.45
2022-11-28T01:44:48.970Z,14.45
2022-11-28T01:47:24.967Z,14.43
2022-11-28T01:49:54.706Z,14.42
2022-11-28T01:52:24.682Z,14.41
2022-11-28T01:55:00.308Z,14.41
2022-11-28T01:57:29.735Z,14.39
2022-11-28T02:00:03.756Z,14.38
2022-11-28T02:02:47.429Z,14.39
2022-11-28T02:05:17.798Z,14.40
2022-11-28T02:07:47.482Z,14.42
2022-11-28T02:10:21.323Z,14.42
2022-11-28T02:13:15.417Z,14.41
2022-11-28T02:16:15.370Z,14.39
2022-11-28T02:19:00.481Z,14.37
2022-11-28T02:21:48.120Z,14.35
2022-11-28T02:25:04.993Z,14.32
2022-11-28T02:28:02.000Z,14.31
2022-11-28T02:30:35.261Z,14.32
2022-11-28T02:33:19.011Z,14.32
2022-11-28T02:35:58.882Z,14.31
2022-11-28T02:38:43.020Z,14.30
2022-11-28T02:41:24.158Z,14.30
2022-11-28T02:44:03.769Z,14.30
2022-11-28T02:46:41.897Z,14.29
2022-11-28T02:49:18.040Z,14.31
2022-11-28T02:51:51.920Z,14.31
2022-11-28T02:54:22.494Z,14.30
2022-11-28T02:56:53.302Z,14.31
2022-11-28T02:59:46.484Z,14.32
2022-11-28T03:02:20.036Z,14.30
2022-11-28T03:05:02.437Z,14.30
2022-11-28T03:08:02.989Z,14.30
2022-11-28T03:10:40.899Z,14.30
2022-11-28T03:13:20.088Z,14.30
2022-11-28T03:16:05.253Z,14.31
2022-11-28T03:18:40.043Z,14.32
2022-11-28T03:21:19.516Z,14.31
2022-11-28T03:23:53.836Z,14.32
2022-11-28T03:26:31.784Z,14.33
2022-11-28T03:29:06.314Z,14.32
2022-11-28T03:31:38.937Z,14.32
2022-11-28T03:34:10.584Z,14.32
2022-11-28T03:36:46.107Z,14.32
2022-11-28T03:39:18.635Z,14.32
2022-11-28T03:41:51.925Z,14.32
2022-11-28T03:44:33.629Z,14.30
2022-11-28T03:47:06.238Z,14.30
2022-11-28T03:49:39.549Z,14.30
2022-11-28T03:52:15.185Z,14.29
2022-11-28T03:54:50.775Z,14.29
2022-11-28T03:57:26.426Z,14.28
2022-11-28T03:59:56.289Z,14.27
2022-11-28T04:02:32.325Z,14.29
2022-11-28T04:05:05.650Z,14.28
2022-11-28T04:07:44.219Z,14.29
2022-11-28T04:10:22.823Z,14.29
2022-11-28T04:13:01.475Z,14.30
2022-11-28T04:15:39.006Z,14.31
2022-11-28T04:18:18.769Z,14.30
2022-11-28T04:20:51.401Z,14.29
2022-11-28T04:23:23.643Z,14.29
2022-11-28T04:25:57.063Z,14.29
2022-11-28T04:28:31.167Z,14.29
2022-11-28T04:31:02.850Z,14.27
2022-11-28T04:33:34.274Z,14.28
2022-11-28T04:36:04.534Z,14.29
2022-11-28T04:38:35.747Z,14.28
2022-11-28T04:41:12.241Z,14.29
2022-11-28T04:43:44.994Z,14.28
2022-11-28T04:46:18.354Z,14.28
2022-11-28T04:48:47.048Z,14.28
2022-11-28T04:51:20.860Z,14.29
2022-11-28T04:53:57.654Z,14.28
2022-11-28T04:56:33.264Z,14.29
2022-11-28T04:59:02.385Z,14.28
2022-11-28T05:01:33.733Z,14.28
2022-11-28T05:04:02.677Z,14.29
2022-11-28T05:06:34.708Z,14.29
2022-11-28T05:09:05.837Z,14.28
2022-11-28T05:11:34.454Z,14.29
2022-11-28T05:14:02.875Z,14.30
2022-11-28T05:16:31.324Z,14.31
2022-11-28T05:19:00.084Z,14.30
2022-11-28T05:21:28.439Z,14.31
2022-11-28T05:23:57.020Z,14.30
2022-11-28T05:26:26.759Z,14.30
2022-11-28T05:28:55.107Z,14.28
2022-11-28T05:31:23.927Z,14.31
2022-11-28T05:33:52.581Z,14.31
2022-11-28T05:36:20.954Z,14.31
2022-11-28T05:38:49.680Z,14.32
2022-11-28T05:41:23.337Z,14.32
2022-11-28T05:43:53.831Z,14.32
2022-11-28T05:46:22.475Z,14.32
2022-11-28T05:48:51.018Z,14.32
2022-11-28T05:51:19.939Z,14.33
2022-11-28T05:53:48.444Z,14.33
2022-11-28T05:56:19.728Z,14.32
2022-11-28T05:58:48.176Z,14.31
2022-11-28T06:01:20.961Z,14.30
2022-11-28T06:03:49.796Z,14.30
2022-11-28T06:06:20.790Z,14.30
2022-11-28T06:08:51.547Z,14.32
2022-11-28T06:11:21.330Z,14.32
2022-11-28T06:13:50.991Z,14.32
2022-11-28T06:16:23.765Z,14.33
2022-11-28T06:18:55.075Z,14.33
2022-11-28T06:21:24.575Z,14.34
2022-11-28T06:23:53.536Z,14.33
2022-11-28T06:26:24.761Z,14.34
2022-11-28T06:28:55.470Z,14.35
2022-11-28T06:31:28.467Z,14.36
2022-11-28T06:33:57.135Z,14.37
2022-11-28T06:36:27.037Z,14.37
2022-11-28T06:38:55.692Z,14.35
2022-11-28T06:41:24.396Z,14.35
2022-11-28T06:43:52.851Z,14.35
2022-11-28T06:46:23.982Z,14.33
2022-11-28T06:48:53.973Z,14.33
2022-11-28T06:51:22.861Z,14.31
2022-11-28T06:53:52.375Z,14.33
2022-11-28T06:56:22.377Z,14.32
2022-11-28T06:58:56.495Z,14.32
2022-11-28T07:01:28.964Z,14.30
2022-11-28T07:03:57.884Z,14.30
2022-11-28T07:06:27.924Z,14.31
2022-11-28T07:08:58.043Z,14.29
2022-11-28T07:11:28.660Z,14.28
2022-11-28T07:13:58.008Z,14.28
2022-11-28T07:16:31.010Z,14.30
2022-11-28T07:19:01.161Z,14.29
2022-11-28T07:21:30.849Z,14.29
2022-11-28T07:24:00.627Z,14.27
2022-11-28T07:26:29.474Z,14.25
2022-11-28T07:28:59.704Z,14.23
2022-11-28T07:31:32.419Z,14.22
2022-11-28T07:34:03.626Z,14.20
2022-11-28T07:36:32.358Z,14.20
2022-11-28T07:39:03.277Z,14.23
2022-11-28T07:41:31.581Z,14.22
2022-11-28T07:44:02.462Z,14.21
2022-11-28T07:46:34.813Z,14.22
2022-11-28T07:49:04.449Z,14.22
2022-11-28T07:51:35.379Z,14.24
2022-11-28T07:54:05.839Z,14.25
2022-11-28T07:57:10.926Z,14.26
2022-11-28T07:59:26.503Z,14.27
2022-11-28T08:01:56.393Z,14.29
2022-11-28T08:04:25.035Z,14.28
2022-11-28T08:06:53.832Z,14.29
2022-11-28T08:09:22.298Z,14.27
2022-11-28T08:11:51.302Z,14.29
2022-11-28T08:14:20.504Z,14.29
2022-11-28T08:16:49.620Z,14.29
2022-11-28T08:19:24.530Z,14.29
2022-11-28T08:21:53.205Z,14.28
2022-11-28T08:24:21.654Z,14.29
2022-11-28T08:26:50.706Z,14.29
2022-11-28T08:29:19.102Z,14.30
2022-11-28T08:31:47.625Z,14.32
2022-11-28T08:34:16.103Z,14.33
2022-11-28T08:36:47.339Z,14.34
2022-11-28T08:39:23.836Z,14.37
2022-11-28T08:41:54.135Z,14.37
2022-11-28T08:44:22.833Z,14.38
2022-11-28T08:46:51.331Z,14.38
2022-11-28T08:49:19.976Z,14.39
2022-11-28T08:51:49.836Z,14.40
2022-11-28T08:54:18.669Z,14.39
2022-11-28T08:56:49.171Z,14.42
2022-11-28T08:59:17.629Z,14.43
2022-11-28T09:01:46.133Z,14.44
2022-11-28T09:04:14.662Z,14.46
2022-11-28T09:06:43.150Z,14.46
2022-11-28T09:09:13.565Z,14.48
2022-11-28T09:11:42.203Z,14.47
2022-11-28T09:14:11.120Z,14.47
2022-11-28T09:16:40.248Z,14.47
2022-11-28T09:19:09.287Z,14.47
2022-11-28T09:21:38.992Z,14.48
2022-11-28T09:24:09.918Z,14.49
2022-11-28T09:26:40.102Z,14.49
2022-11-28T09:29:08.682Z,14.48
2022-11-28T09:31:37.084Z,14.49
2022-11-28T09:34:05.443Z,14.51
2022-11-28T09:36:34.154Z,14.51
2022-11-28T09:39:03.245Z,14.51
2022-11-28T09:41:44.143Z,14.51
2022-11-28T09:44:21.528Z,14.51
2022-11-28T09:46:52.878Z,14.49
2022-11-28T09:49:38.583Z,14.50
2022-11-28T09:52:25.961Z,14.49
2022-11-28T09:55:05.231Z,14.49
2022-11-28T09:57:40.742Z,14.48
2022-11-28T10:00:18.792Z,14.50
2022-11-28T10:03:22.380Z,14.49
2022-11-28T10:06:01.043Z,14.47
2022-11-28T10:08:41.179Z,14.48
2022-11-28T10:11:31.631Z,14.47
2022-11-28T10:14:17.031Z,14.51
2022-11-28T10:16:54.639Z,14.51
2022-11-28T10:19:53.342Z,14.53
2022-11-28T10:22:25.941Z,14.53
2022-11-28T10:24:57.850Z,14.54
2022-11-28T10:27:35.856Z,14.55
2022-11-28T10:30:11.078Z,14.56
2022-11-28T10:32:43.656Z,14.57
2022-11-28T10:35:28.276Z,14.56
2022-11-28T10:37:57.113Z,14.55
2022-11-28T10:40:36.917Z,14.57
2022-11-28T10:43:13.621Z,14.58
2022-11-28T10:45:53.437Z,14.58
2022-11-28T10:48:41.037Z,14.60
2022-11-28T10:51:28.011Z,14.60
2022-11-28T10:54:11.389Z,14.61
2022-11-28T10:56:50.733Z,14.62
2022-11-28T10:59:32.356Z,14.62
2022-11-28T11:02:20.773Z,14.63
2022-11-28T11:04:49.622Z,14.63
2022-11-28T11:07:29.320Z,14.65
2022-11-28T11:10:02.077Z,14.68
2022-11-28T11:12:33.288Z,14.68
2022-11-28T11:15:19.617Z,14.69
2022-11-28T11:17:50.890Z,14.70
2022-11-28T11:20:39.093Z,14.68
2022-11-28T11:23:17.834Z,14.69
2022-11-28T11:25:54.194Z,14.70
2022-11-28T11:28:43.933Z,14.70
2022-11-28T11:31:22.158Z,14.69
2022-11-28T11:33:54.767Z,14.70
2022-11-28T11:36:31.368Z,14.70
2022-11-28T11:39:18.025Z,14.70
2022-11-28T11:41:49.165Z,14.69
2022-11-28T11:44:34.246Z,14.69
2022-11-28T11:47:05.271Z,14.71
2022-11-28T11:49:37.713Z,14.73
2022-11-28T11:52:15.044Z,14.74
2022-11-28T11:54:59.474Z,14.74
2022-11-28T11:57:34.506Z,14.75
2022-11-28T12:00:08.369Z,14.74
2022-11-28T12:02:48.736Z,14.75
2022-11-28T12:05:21.243Z,14.75
2022-11-28T12:07:59.496Z,14.77
2022-11-28T12:10:31.378Z,14.77
2022-11-28T12:12:59.926Z,14.78
2022-11-28T12:15:39.174Z,14.80
2022-11-28T12:18:30.858Z,14.81
2022-11-28T12:21:13.922Z,14.82
2022-11-28T12:24:08.669Z,14.80
2022-11-28T12:26:46.536Z,14.82
2022-11-28T12:29:39.381Z,14.79
2022-11-28T12:32:30.385Z,14.81
2022-11-28T12:35:25.164Z,14.82
2022-11-28T12:38:11.166Z,14.83
2022-11-28T12:41:03.692Z,14.82
2022-11-28T12:43:49.821Z,14.81
2022-11-28T12:46:32.782Z,14.82
2022-11-28T12:49:17.454Z,14.82
2022-11-28T12:52:01.767Z,14.81
2022-11-28T12:54:55.260Z,14.79
2022-11-28T12:57:33.390Z,14.79
2022-11-28T13:00:09.692Z,14.79
2022-11-28T13:02:53.494Z,14.78
2022-11-28T13:05:32.462Z,14.78
2022-11-28T13:08:26.687Z,14.77
2022-11-28T13:11:06.718Z,14.78
2022-11-28T13:13:41.391Z,14.78
2022-11-28T13:16:26.481Z,14.78
2022-11-28T13:19:00.562Z,14.77
2022-11-28T13:21:37.673Z,14.78
2022-11-28T13:24:24.572Z,14.76
2022-11-28T13:27:03.484Z,14.75
2022-11-28T13:29:39.280Z,14.77
2022-11-28T13:32:15.846Z,14.78
2022-11-28T13:34:45.429Z,14.78
2022-11-28T13:40:19.996Z,14.80
2022-11-28T13:43:06.548Z,14.81
2022-11-28T13:45:39.952Z,14.83
2022-11-28T13:51:42.002Z,14.80
2022-11-28T13:54:47.892Z,14.79
2022-11-28T13:57:29.479Z,14.81
2022-11-28T14:00:05.567Z,14.80
2022-11-28T14:02:46.114Z,14.80
2022-11-28T14:05:31.725Z,14.82
2022-11-28T14:08:00.510Z,14.81
2022-11-28T14:11:02.944Z,14.80
2022-11-28T14:13:57.558Z,14.80
2022-11-28T14:16:52.214Z,14.79
2022-11-28T14:19:38.432Z,14.79
2022-11-28T14:22:26.768Z,14.81
2022-11-28T14:25:03.077Z,14.81
2022-11-28T14:27:37.964Z,14.82
2022-11-28T14:30:24.216Z,14.81
2022-11-28T14:32:59.773Z,14.82
2022-11-28T14:36:07.787Z,14.82
2022-11-28T14:38:45.822Z,14.81
2022-11-28T14:41:16.811Z,14.80
2022-11-28T14:43:46.576Z,14.82
2022-11-28T14:46:28.191Z,14.83
2022-11-28T14:49:25.608Z,14.80
2022-11-28T14:52:44.456Z,14.78
2022-11-28T14:55:22.519Z,14.77
2022-11-28T14:57:58.400Z,14.77
2022-11-28T15:00:29.608Z,14.77
2022-11-28T15:03:27.050Z,14.78
2022-11-28T15:06:02.311Z,14.77
2022-11-28T15:08:55.184Z,14.77
2022-11-28T15:11:58.859Z,14.77
2022-11-28T15:14:29.438Z,14.77
2022-11-28T15:17:02.485Z,14.78
2022-11-28T15:19:35.143Z,14.78
2022-11-28T15:22:06.708Z,14.78
2022-11-28T15:24:37.059Z,14.78
2022-11-28T15:27:25.233Z,14.80
2022-11-28T15:29:59.483Z,14.80
2022-11-28T15:32:30.463Z,14.80
2022-11-28T15:35:10.843Z,14.81
2022-11-28T15:37:49.957Z,14.81
2022-11-28T15:40:21.616Z,14.80
2022-11-28T15:42:51.450Z,14.81
2022-11-28T15:45:26.425Z,14.82
2022-11-28T15:47:56.989Z,14.81
2022-11-28T15:50:28.912Z,14.81
2022-11-28T15:53:01.621Z,14.83
2022-11-28T15:55:34.745Z,14.82
2022-11-28T15:58:22.000Z,14.83
2022-11-28T16:00:55.905Z,14.85
2022-11-28T16:03:29.881Z,14.85
2022-11-28T16:05:59.968Z,14.86
2022-11-28T16:08:34.697Z,14.88
2022-11-28T16:11:07.115Z,14.88
2022-11-28T16:13:36.215Z,14.88
2022-11-28T16:16:12.746Z,14.89
2022-11-28T16:18:47.090Z,14.89
2022-11-28T16:21:16.219Z,14.90
2022-11-28T16:23:46.119Z,14.90
2022-11-28T16:26:25.801Z,14.91
2022-11-28T16:29:02.432Z,14.91
2022-11-28T16:31:31.407Z,14.90
2022-11-28T16:34:02.047Z,14.91
2022-11-28T16:36:36.853Z,14.91
2022-11-28T16:39:15.810Z,14.91
2022-11-28T16:41:51.976Z,14.90
2022-11-28T16:44:23.240Z,14.90
2022-11-28T16:46:55.152Z,14.91
2022-11-28T16:49:39.556Z,14.91
2022-11-28T16:52:52.334Z,14.88
2022-11-28T16:58:51.445Z,14.93
2022-11-28T17:01:21.470Z,14.93
2022-11-28T17:03:52.544Z,14.95
2022-11-28T17:06:30.060Z,14.97
2022-11-28T17:08:58.567Z,14.96
2022-11-28T17:11:31.718Z,14.97
2022-11-28T17:14:02.869Z,14.97
2022-11-28T17:16:36.765Z,14.99
2022-11-28T17:19:05.533Z,14.99
2022-11-28T17:21:42.269Z,15.01
2022-11-28T17:24:18.081Z,15.01
2022-11-28T17:26:46.954Z,15.02
2022-11-28T17:29:17.972Z,15.02
2022-11-28T17:31:48.055Z,15.01
2022-11-28T17:34:19.391Z,15.01
2022-11-28T17:36:48.801Z,15.02
2022-11-28T17:39:18.618Z,15.01
2022-11-28T17:41:47.923Z,15.01
2022-11-28T17:44:21.057Z,15.01
2022-11-28T17:46:50.509Z,15.01
2022-11-28T17:49:20.580Z,15.02
2022-11-28T17:51:51.003Z,15.01
2022-11-28T17:54:22.675Z,15.02
2022-11-28T17:56:52.882Z,15.02
2022-11-28T17:59:24.593Z,15.02
2022-11-28T18:01:53.120Z,15.02
2022-11-28T18:04:25.671Z,15.04
2022-11-28T18:06:54.437Z,15.03
2022-11-28T18:09:23.063Z,15.04
2022-11-28T18:11:51.659Z,15.03
2022-11-28T18:14:20.225Z,15.04
2022-11-28T18:16:50.716Z,15.03
2022-11-28T18:19:19.286Z,15.03
2022-11-28T18:21:47.718Z,15.03
2022-11-28T18:24:16.403Z,15.04
2022-11-28T18:26:44.960Z,15.03
2022-11-28T18:29:14.279Z,15.05
2022-11-28T18:31:44.070Z,15.04
2022-11-28T18:34:13.824Z,15.04
2022-11-28T18:36:42.302Z,15.05
2022-11-28T18:39:15.130Z,15.04
2022-11-28T18:41:44.015Z,15.06
2022-11-28T18:44:12.741Z,15.05
2022-11-28T18:46:41.850Z,15.05
2022-11-28T18:49:15.117Z,15.05
2022-11-28T18:51:43.937Z,15.06
2022-11-28T18:54:19.263Z,15.06
2022-11-28T18:56:49.924Z,15.05
2022-11-28T18:59:19.634Z,15.05
2022-11-28T19:01:48.288Z,15.05
2022-11-28T19:04:19.065Z,15.05
2022-11-28T19:06:48.540Z,15.05
2022-11-28T19:09:18.634Z,15.04
2022-11-28T19:11:47.293Z,15.04
2022-11-28T19:14:21.287Z,15.03
2022-11-28T19:16:50.411Z,15.04
2022-11-28T19:19:21.059Z,15.04
2022-11-28T19:21:51.370Z,15.05
2022-11-28T19:24:19.879Z,15.05
2022-11-28T19:26:48.870Z,15.05
2022-11-28T19:29:17.599Z,15.07
2022-11-28T19:31:46.191Z,15.07
2022-11-28T19:34:18.573Z,15.08
2022-11-28T19:36:51.206Z,15.08
2022-11-28T19:39:23.213Z,15.07
2022-11-28T19:41:53.551Z,15.07
2022-11-28T19:44:24.147Z,15.06
2022-11-28T19:46:53.825Z,15.07
2022-11-28T19:49:25.338Z,15.08
2022-11-28T19:51:55.499Z,15.08
2022-11-28T19:54:23.891Z,15.08
2022-11-28T19:56:54.712Z,15.08
2022-11-28T19:59:23.287Z,15.08
2022-11-28T20:01:53.726Z,15.10
2022-11-28T20:04:22.596Z,15.10
2022-11-28T20:06:51.463Z,15.10
2022-11-28T20:09:21.668Z,15.12
2022-11-28T20:11:50.541Z,15.11
2022-11-28T20:14:20.780Z,15.12
2022-11-28T20:16:49.484Z,15.14
2022-11-28T20:19:18.318Z,15.13
2022-11-28T20:21:47.317Z,15.14
2022-11-28T20:24:17.160Z,15.13
2022-11-28T20:26:50.513Z,15.14
2022-11-28T20:29:26.646Z,15.15
2022-11-28T20:31:57.033Z,15.14
2022-11-28T20:34:26.853Z,15.13
2022-11-28T20:36:55.487Z,15.15
2022-11-28T20:39:25.273Z,15.14
2022-11-28T20:41:55.281Z,15.14
2022-11-28T20:44:23.981Z,15.15
2022-11-28T20:46:52.347Z,15.15
2022-11-28T20:49:20.949Z,15.14
2022-11-28T20:51:50.344Z,15.15
2022-11-28T20:54:19.126Z,15.16
2022-11-28T20:59:37.652Z,15.16
2022-11-28T21:02:06.200Z,15.17
2022-11-28T21:04:35.081Z,15.17
2022-11-28T21:07:03.532Z,15.18
2022-11-28T21:09:32.104Z,15.19
2022-11-28T21:12:00.541Z,15.19
2022-11-28T21:14:29.929Z,15.19
2022-11-28T21:17:00.204Z,15.21
2022-11-28T21:19:29.058Z,15.21
2022-11-28T21:21:57.978Z,15.20
2022-11-28T21:24:26.452Z,15.21
2022-11-28T21:26:55.059Z,15.22
2022-11-28T21:29:25.103Z,15.22
2022-11-28T21:31:54.472Z,15.22
2022-11-28T21:34:24.284Z,15.22
2022-11-28T21:36:52.681Z,15.22
2022-11-28T21:39:22.934Z,15.22
2022-11-28T21:41:52.038Z,15.22
2022-11-28T21:44:21.019Z,15.21
2022-11-28T21:46:50.900Z,15.20
2022-11-28T21:49:19.809Z,15.19
2022-11-28T21:51:49.876Z,15.20
2022-11-28T21:54:18.570Z,15.19
2022-11-28T21:56:47.454Z,15.20
2022-11-28T21:59:16.429Z,15.21
2022-11-28T22:01:46.900Z,15.21
2022-11-28T22:04:15.651Z,15.21
2022-11-28T22:06:45.071Z,15.23
2022-11-28T22:12:02.057Z,15.23
2022-11-28T22:14:36.460Z,15.23
2022-11-28T22:17:05.289Z,15.23
2022-11-28T22:19:34.077Z,15.23
2022-11-28T22:22:02.443Z,15.23
2022-11-28T22:24:33.776Z,15.23
2022-11-28T22:27:02.320Z,15.23
2022-11-28T22:29:30.881Z,15.23
2022-11-28T22:31:59.577Z,15.23
2022-11-28T22:34:28.412Z,15.23
2022-11-28T22:36:56.692Z,15.24
2022-11-28T22:39:25.399Z,15.25
2022-11-28T22:41:55.900Z,15.23
2022-11-28T22:44:24.652Z,15.25
2022-11-28T22:46:54.528Z,15.24
2022-11-28T22:49:23.200Z,15.24
2022-11-28T22:51:51.781Z,15.25
2022-11-28T22:54:20.401Z,15.26
2022-11-28T22:56:49.021Z,15.26
2022-11-28T22:59:19.365Z,15.27
2022-11-28T23:01:47.895Z,15.28
2022-11-28T23:04:17.522Z,15.28
2022-11-28T23:06:46.033Z,15.27
2022-11-28T23:09:15.632Z,15.29
2022-11-28T23:11:46.020Z,15.28
2022-11-28T23:14:15.626Z,15.29
2022-11-28T23:16:47.021Z,15.30
2022-11-28T23:19:19.166Z,15.31
2022-11-28T23:21:49.850Z,15.30
2022-11-28T23:24:22.758Z,15.30
2022-11-28T23:26:53.193Z,15.29
2022-11-28T23:29:21.754Z,15.31
2022-11-28T23:31:52.179Z,15.32
2022-11-28T23:34:20.935Z,15.32
2022-11-28T23:36:49.392Z,15.33
2022-11-28T23:39:20.632Z,15.33
2022-11-28T23:41:49.768Z,15.33
2022-11-28T23:44:20.300Z,15.34
2022-11-28T23:46:50.811Z,15.35
2022-11-28T23:49:19.398Z,15.34
2022-11-28T23:51:47.812Z,15.34
2022-11-28T23:54:16.633Z,15.33
2022-11-28T23:56:45.701Z,15.33
2022-11-28T23:59:14.465Z,15.33
